sensor_id;sensor_type;location;lat;lon;timestamp;temperature;humidity
25436;DHT22;13363;52.772;-3.890;2023-08-17T00:01:51;14.50;99.90
25436;DHT22;13363;52.772;-3.890;2023-08-17T00:04:16;14.50;99.90
25436;DHT22;13363;52.772;-3.890;2023-08-17T00:06:42;14.50;99.90
25436;DHT22;13363;52.772;-3.890;2023-08-17T00:11:38;14.40;99.90
25436;DHT22;13363;52.772;-3.890;2023-08-17T00:14:04;14.30;99.90
25436;DHT22;13363;52.772;-3.890;2023-08-17T00:16:31;14.30;99.90
25436;DHT22;13363;52.772;-3.890;2023-08-17T00:18:57;14.30;99.90
25436;DHT22;13363;52.772;-3.890;2023-08-17T00:23:49;14.10;99.90
25436;DHT22;13363;52.772;-3.890;2023-08-17T00:26:15;14.10;99.90
25436;DHT22;13363;52.772;-3.890;2023-08-17T00:28:41;14.10;99.90
25436;DHT22;13363;52.772;-3.890;2023-08-17T00:31:07;14.10;99.90
25436;DHT22;13363;52.772;-3.890;2023-08-17T00:33:32;14.10;99.90
25436;DHT22;13363;52.772;-3.890;2023-08-17T00:35:58;14.10;99.90
25436;DHT22;13363;52.772;-3.890;2023-08-17T00:38:24;14.10;99.90
25436;DHT22;13363;52.772;-3.890;2023-08-17T00:40:50;14.00;99.90
25436;DHT22;13363;52.772;-3.890;2023-08-17T00:43:16;14.10;99.90
25436;DHT22;13363;52.772;-3.890;2023-08-17T00:45:43;14.20;99.90
25436;DHT22;13363;52.772;-3.890;2023-08-17T00:48:11;14.20;99.90
25436;DHT22;13363;52.772;-3.890;2023-08-17T00:50:38;14.00;99.90
25436;DHT22;13363;52.772;-3.890;2023-08-17T00:53:04;14.10;99.90
25436;DHT22;13363;52.772;-3.890;2023-08-17T00:55:32;14.00;99.90
25436;DHT22;13363;52.772;-3.890;2023-08-17T00:57:58;13.90;99.90
25436;DHT22;13363;52.772;-3.890;2023-08-17T01:00:25;14.00;99.90
25436;DHT22;13363;52.772;-3.890;2023-08-17T01:02:54;14.00;99.90
25436;DHT22;13363;52.772;-3.890;2023-08-17T01:05:21;13.90;99.90
25436;DHT22;13363;52.772;-3.890;2023-08-17T01:07:47;13.80;99.90
25436;DHT22;13363;52.772;-3.890;2023-08-17T01:10:13;13.80;99.90
25436;DHT22;13363;52.772;-3.890;2023-08-17T01:12:57;13.70;99.90
25436;DHT22;13363;52.772;-3.890;2023-08-17T01:15:39;13.70;99.90
25436;DHT22;13363;52.772;-3.890;2023-08-17T01:18:29;13.70;99.90
25436;DHT22;13363;52.772;-3.890;2023-08-17T01:20:57;13.60;99.90
25436;DHT22;13363;52.772;-3.890;2023-08-17T01:23:23;13.70;99.90
25436;DHT22;13363;52.772;-3.890;2023-08-17T01:25:49;13.60;99.90
25436;DHT22;13363;52.772;-3.890;2023-08-17T01:28:15;13.60;99.90
25436;DHT22;13363;52.772;-3.890;2023-08-17T01:33:50;13.60;99.90
25436;DHT22;13363;52.772;-3.890;2023-08-17T01:36:19;13.70;99.90
25436;DHT22;13363;52.772;-3.890;2023-08-17T01:38:46;13.60;99.90
25436;DHT22;13363;52.772;-3.890;2023-08-17T01:41:13;13.60;99.90
25436;DHT22;13363;52.772;-3.890;2023-08-17T01:43:44;13.50;99.90
25436;DHT22;13363;52.772;-3.890;2023-08-17T01:46:15;13.50;99.90
25436;DHT22;13363;52.772;-3.890;2023-08-17T01:48:45;13.40;99.90
25436;DHT22;13363;52.772;-3.890;2023-08-17T01:51:15;13.30;99.90
25436;DHT22;13363;52.772;-3.890;2023-08-17T01:53:41;13.40;99.90
25436;DHT22;13363;52.772;-3.890;2023-08-17T01:56:07;13.40;99.90
25436;DHT22;13363;52.772;-3.890;2023-08-17T01:58:33;13.30;99.90
25436;DHT22;13363;52.772;-3.890;2023-08-17T02:00:59;13.50;99.90
25436;DHT22;13363;52.772;-3.890;2023-08-17T02:03:24;13.40;99.90
25436;DHT22;13363;52.772;-3.890;2023-08-17T02:05:50;13.40;99.90
25436;DHT22;13363;52.772;-3.890;2023-08-17T02:08:16;13.70;99.90
25436;DHT22;13363;52.772;-3.890;2023-08-17T02:10:42;13.50;99.90
25436;DHT22;13363;52.772;-3.890;2023-08-17T02:13:08;13.40;99.90
25436;DHT22;13363;52.772;-3.890;2023-08-17T02:15:38;13.30;99.90
25436;DHT22;13363;52.772;-3.890;2023-08-17T02:18:05;13.30;99.90
25436;DHT22;13363;52.772;-3.890;2023-08-17T02:20:30;13.20;99.90
25436;DHT22;13363;52.772;-3.890;2023-08-17T02:22:56;13.20;99.90
25436;DHT22;13363;52.772;-3.890;2023-08-17T02:25:22;13.10;99.90
25436;DHT22;13363;52.772;-3.890;2023-08-17T02:27:48;13.20;99.90
25436;DHT22;13363;52.772;-3.890;2023-08-17T02:30:14;13.20;99.90
25436;DHT22;13363;52.772;-3.890;2023-08-17T02:32:40;13.20;99.90
25436;DHT22;13363;52.772;-3.890;2023-08-17T02:35:06;13.30;99.90
25436;DHT22;13363;52.772;-3.890;2023-08-17T02:37:32;13.20;99.90
25436;DHT22;13363;52.772;-3.890;2023-08-17T02:39:58;13.10;99.90
25436;DHT22;13363;52.772;-3.890;2023-08-17T02:42:24;13.00;99.90
25436;DHT22;13363;52.772;-3.890;2023-08-17T02:44:50;13.00;99.90
25436;DHT22;13363;52.772;-3.890;2023-08-17T02:47:16;13.00;99.90
25436;DHT22;13363;52.772;-3.890;2023-08-17T02:49:42;13.10;99.90
25436;DHT22;13363;52.772;-3.890;2023-08-17T02:52:08;13.00;99.90
25436;DHT22;13363;52.772;-3.890;2023-08-17T02:54:34;13.00;99.90
25436;DHT22;13363;52.772;-3.890;2023-08-17T02:57:00;12.90;99.90
25436;DHT22;13363;52.772;-3.890;2023-08-17T02:59:25;12.90;99.90
25436;DHT22;13363;52.772;-3.890;2023-08-17T03:01:53;12.90;99.90
25436;DHT22;13363;52.772;-3.890;2023-08-17T03:04:18;12.90;99.90
25436;DHT22;13363;52.772;-3.890;2023-08-17T03:06:44;12.80;99.90
25436;DHT22;13363;52.772;-3.890;2023-08-17T03:09:10;13.00;99.90
25436;DHT22;13363;52.772;-3.890;2023-08-17T03:11:36;12.80;99.90
25436;DHT22;13363;52.772;-3.890;2023-08-17T03:16:29;12.90;99.90
25436;DHT22;13363;52.772;-3.890;2023-08-17T03:18:58;12.80;99.90
25436;DHT22;13363;52.772;-3.890;2023-08-17T03:21:24;13.00;99.90
25436;DHT22;13363;52.772;-3.890;2023-08-17T03:23:49;13.10;99.90
25436;DHT22;13363;52.772;-3.890;2023-08-17T03:26:15;13.10;99.90
25436;DHT22;13363;52.772;-3.890;2023-08-17T03:28:41;13.30;99.90
25436;DHT22;13363;52.772;-3.890;2023-08-17T03:31:07;13.00;99.90
25436;DHT22;13363;52.772;-3.890;2023-08-17T03:33:35;13.00;99.90
25436;DHT22;13363;52.772;-3.890;2023-08-17T03:36:02;13.00;99.90
25436;DHT22;13363;52.772;-3.890;2023-08-17T03:38:28;12.90;99.90
25436;DHT22;13363;52.772;-3.890;2023-08-17T03:40:54;12.80;99.90
25436;DHT22;13363;52.772;-3.890;2023-08-17T03:43:20;12.80;99.90
25436;DHT22;13363;52.772;-3.890;2023-08-17T03:45:45;12.70;99.90
25436;DHT22;13363;52.772;-3.890;2023-08-17T03:48:11;12.80;99.90
25436;DHT22;13363;52.772;-3.890;2023-08-17T03:50:38;12.80;99.90
25436;DHT22;13363;52.772;-3.890;2023-08-17T03:55:30;12.60;99.90
25436;DHT22;13363;52.772;-3.890;2023-08-17T03:57:56;12.80;99.90
25436;DHT22;13363;52.772;-3.890;2023-08-17T04:00:21;12.80;99.90
25436;DHT22;13363;52.772;-3.890;2023-08-17T04:02:47;12.90;99.90
25436;DHT22;13363;52.772;-3.890;2023-08-17T04:05:13;12.90;99.90
25436;DHT22;13363;52.772;-3.890;2023-08-17T04:07:39;13.00;99.90
25436;DHT22;13363;52.772;-3.890;2023-08-17T04:10:06;12.90;99.90
25436;DHT22;13363;52.772;-3.890;2023-08-17T04:12:32;12.90;99.90
25436;DHT22;13363;52.772;-3.890;2023-08-17T04:14:57;12.80;99.90
25436;DHT22;13363;52.772;-3.890;2023-08-17T04:17:23;12.80;99.90
25436;DHT22;13363;52.772;-3.890;2023-08-17T04:19:49;12.80;99.90
25436;DHT22;13363;52.772;-3.890;2023-08-17T04:22:15;12.80;99.90
25436;DHT22;13363;52.772;-3.890;2023-08-17T04:29:33;12.80;99.90
25436;DHT22;13363;52.772;-3.890;2023-08-17T04:31:59;12.80;99.90
25436;DHT22;13363;52.772;-3.890;2023-08-17T04:34:25;12.90;99.90
25436;DHT22;13363;52.772;-3.890;2023-08-17T04:36:51;12.80;99.90
25436;DHT22;13363;52.772;-3.890;2023-08-17T04:39:16;12.80;99.90
25436;DHT22;13363;52.772;-3.890;2023-08-17T04:41:43;12.80;99.90
25436;DHT22;13363;52.772;-3.890;2023-08-17T04:44:08;12.80;99.90
25436;DHT22;13363;52.772;-3.890;2023-08-17T04:46:35;12.80;99.90
25436;DHT22;13363;52.772;-3.890;2023-08-17T04:49:01;12.80;99.90
25436;DHT22;13363;52.772;-3.890;2023-08-17T04:51:27;12.80;99.90
25436;DHT22;13363;52.772;-3.890;2023-08-17T04:53:53;12.70;99.90
25436;DHT22;13363;52.772;-3.890;2023-08-17T04:56:18;12.60;99.90
25436;DHT22;13363;52.772;-3.890;2023-08-17T04:58:44;12.80;99.90
25436;DHT22;13363;52.772;-3.890;2023-08-17T05:01:10;12.80;99.90
25436;DHT22;13363;52.772;-3.890;2023-08-17T05:03:36;12.80;99.90
25436;DHT22;13363;52.772;-3.890;2023-08-17T05:06:02;12.80;99.90
25436;DHT22;13363;52.772;-3.890;2023-08-17T05:08:29;12.90;99.90
25436;DHT22;13363;52.772;-3.890;2023-08-17T05:13:21;13.00;99.90
25436;DHT22;13363;52.772;-3.890;2023-08-17T05:15:47;12.90;99.90
25436;DHT22;13363;52.772;-3.890;2023-08-17T05:18:12;12.90;99.90
25436;DHT22;13363;52.772;-3.890;2023-08-17T05:20:38;13.00;99.90
25436;DHT22;13363;52.772;-3.890;2023-08-17T05:23:04;12.90;99.90
25436;DHT22;13363;52.772;-3.890;2023-08-17T05:25:30;13.00;99.90
25436;DHT22;13363;52.772;-3.890;2023-08-17T05:30:22;12.80;99.90
25436;DHT22;13363;52.772;-3.890;2023-08-17T05:32:48;12.80;99.90
25436;DHT22;13363;52.772;-3.890;2023-08-17T05:35:14;12.80;99.90
25436;DHT22;13363;52.772;-3.890;2023-08-17T05:37:39;12.90;99.90
25436;DHT22;13363;52.772;-3.890;2023-08-17T05:40:06;13.00;99.90
25436;DHT22;13363;52.772;-3.890;2023-08-17T05:42:34;12.90;99.90
25436;DHT22;13363;52.772;-3.890;2023-08-17T05:45:00;13.10;99.90
25436;DHT22;13363;52.772;-3.890;2023-08-17T05:47:26;13.10;99.90
25436;DHT22;13363;52.772;-3.890;2023-08-17T05:49:51;13.20;99.90
25436;DHT22;13363;52.772;-3.890;2023-08-17T05:52:19;13.20;99.90
25436;DHT22;13363;52.772;-3.890;2023-08-17T05:57:11;13.40;99.90
25436;DHT22;13363;52.772;-3.890;2023-08-17T05:59:37;13.50;99.90
25436;DHT22;13363;52.772;-3.890;2023-08-17T06:02:03;13.60;99.90
25436;DHT22;13363;52.772;-3.890;2023-08-17T06:04:28;13.70;99.90
25436;DHT22;13363;52.772;-3.890;2023-08-17T06:06:55;14.20;99.90
25436;DHT22;13363;52.772;-3.890;2023-08-17T06:09:20;13.80;99.90
25436;DHT22;13363;52.772;-3.890;2023-08-17T06:11:46;13.80;99.90
25436;DHT22;13363;52.772;-3.890;2023-08-17T06:14:12;13.90;99.90
25436;DHT22;13363;52.772;-3.890;2023-08-17T06:16:38;13.90;99.90
25436;DHT22;13363;52.772;-3.890;2023-08-17T06:19:04;14.00;99.90
25436;DHT22;13363;52.772;-3.890;2023-08-17T06:21:29;14.10;99.90
25436;DHT22;13363;52.772;-3.890;2023-08-17T06:23:55;14.50;99.90
25436;DHT22;13363;52.772;-3.890;2023-08-17T06:26:21;15.00;99.90
25436;DHT22;13363;52.772;-3.890;2023-08-17T06:28:47;15.10;99.90
25436;DHT22;13363;52.772;-3.890;2023-08-17T06:31:15;15.40;99.90
25436;DHT22;13363;52.772;-3.890;2023-08-17T06:33:40;15.50;99.90
25436;DHT22;13363;52.772;-3.890;2023-08-17T06:36:06;15.60;99.90
25436;DHT22;13363;52.772;-3.890;2023-08-17T06:38:32;15.90;99.90
25436;DHT22;13363;52.772;-3.890;2023-08-17T06:40:58;16.20;99.90
25436;DHT22;13363;52.772;-3.890;2023-08-17T06:43:24;16.80;99.90
25436;DHT22;13363;52.772;-3.890;2023-08-17T06:45:50;17.80;99.90
25436;DHT22;13363;52.772;-3.890;2023-08-17T06:48:15;18.10;99.90
25436;DHT22;13363;52.772;-3.890;2023-08-17T06:50:41;19.00;99.90
25436;DHT22;13363;52.772;-3.890;2023-08-17T06:53:07;20.10;99.90
25436;DHT22;13363;52.772;-3.890;2023-08-17T06:55:33;20.70;99.90
25436;DHT22;13363;52.772;-3.890;2023-08-17T06:57:59;21.20;99.90
25436;DHT22;13363;52.772;-3.890;2023-08-17T07:00:25;20.90;99.90
25436;DHT22;13363;52.772;-3.890;2023-08-17T07:02:51;21.30;99.90
25436;DHT22;13363;52.772;-3.890;2023-08-17T07:05:17;20.90;1.00
25436;DHT22;13363;52.772;-3.890;2023-08-17T07:07:44;20.90;1.00
25436;DHT22;13363;52.772;-3.890;2023-08-17T07:10:10;21.50;1.00
25436;DHT22;13363;52.772;-3.890;2023-08-17T07:12:37;21.60;1.00
25436;DHT22;13363;52.772;-3.890;2023-08-17T07:15:03;21.70;1.00
25436;DHT22;13363;52.772;-3.890;2023-08-17T07:17:30;21.50;1.00
25436;DHT22;13363;52.772;-3.890;2023-08-17T07:19:56;21.40;99.90
25436;DHT22;13363;52.772;-3.890;2023-08-17T07:22:22;21.60;99.90
25436;DHT22;13363;52.772;-3.890;2023-08-17T07:24:48;21.80;99.90
25436;DHT22;13363;52.772;-3.890;2023-08-17T07:27:14;21.50;99.90
25436;DHT22;13363;52.772;-3.890;2023-08-17T07:29:40;21.30;99.90
25436;DHT22;13363;52.772;-3.890;2023-08-17T07:32:06;21.10;99.90
25436;DHT22;13363;52.772;-3.890;2023-08-17T07:34:32;20.80;1.00
25436;DHT22;13363;52.772;-3.890;2023-08-17T07:36:58;20.60;1.00
25436;DHT22;13363;52.772;-3.890;2023-08-17T07:39:24;18.20;1.00
25436;DHT22;13363;52.772;-3.890;2023-08-17T07:41:50;20.40;1.00
25436;DHT22;13363;52.772;-3.890;2023-08-17T07:44:16;20.30;1.00
25436;DHT22;13363;52.772;-3.890;2023-08-17T07:46:42;20.30;1.00
25436;DHT22;13363;52.772;-3.890;2023-08-17T07:49:08;20.40;1.00
25436;DHT22;13363;52.772;-3.890;2023-08-17T07:51:33;20.90;88.00
25436;DHT22;13363;52.772;-3.890;2023-08-17T07:54:00;21.40;99.90
25436;DHT22;13363;52.772;-3.890;2023-08-17T07:56:26;21.40;1.00
25436;DHT22;13363;52.772;-3.890;2023-08-17T07:58:55;21.10;99.90
25436;DHT22;13363;52.772;-3.890;2023-08-17T08:01:22;21.70;99.90
25436;DHT22;13363;52.772;-3.890;2023-08-17T08:03:48;21.30;99.90
25436;DHT22;13363;52.772;-3.890;2023-08-17T08:06:13;21.10;99.90
25436;DHT22;13363;52.772;-3.890;2023-08-17T08:08:40;20.90;99.90
25436;DHT22;13363;52.772;-3.890;2023-08-17T08:11:06;20.70;99.90
25436;DHT22;13363;52.772;-3.890;2023-08-17T08:13:32;20.50;99.90
25436;DHT22;13363;52.772;-3.890;2023-08-17T08:16:00;20.40;1.00
25436;DHT22;13363;52.772;-3.890;2023-08-17T08:18:26;20.30;1.00
25436;DHT22;13363;52.772;-3.890;2023-08-17T08:20:52;20.30;1.00
25436;DHT22;13363;52.772;-3.890;2023-08-17T08:23:18;20.20;1.00
25436;DHT22;13363;52.772;-3.890;2023-08-17T08:25:44;20.20;1.00
25436;DHT22;13363;52.772;-3.890;2023-08-17T08:28:12;20.30;73.60
25436;DHT22;13363;52.772;-3.890;2023-08-17T08:30:37;20.30;1.00
25436;DHT22;13363;52.772;-3.890;2023-08-17T08:33:03;20.50;1.00
25436;DHT22;13363;52.772;-3.890;2023-08-17T08:35:29;20.50;1.00
25436;DHT22;13363;52.772;-3.890;2023-08-17T08:37:55;20.40;99.90
25436;DHT22;13363;52.772;-3.890;2023-08-17T08:40:29;20.30;1.00
25436;DHT22;13363;52.772;-3.890;2023-08-17T08:42:56;20.40;1.00
25436;DHT22;13363;52.772;-3.890;2023-08-17T08:45:23;20.20;1.00
25436;DHT22;13363;52.772;-3.890;2023-08-17T08:47:49;20.20;1.00
25436;DHT22;13363;52.772;-3.890;2023-08-17T08:50:20;20.20;1.00
25436;DHT22;13363;52.772;-3.890;2023-08-17T08:52:59;20.20;1.00
25436;DHT22;13363;52.772;-3.890;2023-08-17T08:55:29;20.20;1.00
25436;DHT22;13363;52.772;-3.890;2023-08-17T08:57:56;20.30;1.00
25436;DHT22;13363;52.772;-3.890;2023-08-17T09:00:22;20.50;94.20
25436;DHT22;13363;52.772;-3.890;2023-08-17T09:02:50;20.60;1.00
25436;DHT22;13363;52.772;-3.890;2023-08-17T09:05:17;20.70;1.00
25436;DHT22;13363;52.772;-3.890;2023-08-17T09:07:44;20.90;99.90
25436;DHT22;13363;52.772;-3.890;2023-08-17T09:10:10;21.00;73.20
25436;DHT22;13363;52.772;-3.890;2023-08-17T09:15:06;21.30;99.90
25436;DHT22;13363;52.772;-3.890;2023-08-17T09:17:33;21.80;99.90
25436;DHT22;13363;52.772;-3.890;2023-08-17T09:19:59;22.70;1.00
25436;DHT22;13363;52.772;-3.890;2023-08-17T09:25:02;24.20;99.90
25436;DHT22;13363;52.772;-3.890;2023-08-17T09:27:28;24.20;57.60
25436;DHT22;13363;52.772;-3.890;2023-08-17T09:30:01;23.90;1.00
25436;DHT22;13363;52.772;-3.890;2023-08-17T09:32:33;23.70;1.00
25436;DHT22;13363;52.772;-3.890;2023-08-17T09:35:05;23.30;1.00
25436;DHT22;13363;52.772;-3.890;2023-08-17T09:37:32;23.00;1.00
25436;DHT22;13363;52.772;-3.890;2023-08-17T09:39:58;22.80;1.00
25436;DHT22;13363;52.772;-3.890;2023-08-17T09:42:24;22.80;1.00
25436;DHT22;13363;52.772;-3.890;2023-08-17T09:44:52;22.70;62.30
25436;DHT22;13363;52.772;-3.890;2023-08-17T09:47:22;22.60;1.00
25436;DHT22;13363;52.772;-3.890;2023-08-17T09:49:49;22.50;1.00
25436;DHT22;13363;52.772;-3.890;2023-08-17T09:52:15;22.30;1.00
25436;DHT22;13363;52.772;-3.890;2023-08-17T09:54:41;22.20;1.00
25436;DHT22;13363;52.772;-3.890;2023-08-17T09:57:08;22.10;1.00
25436;DHT22;13363;52.772;-3.890;2023-08-17T09:59:34;22.00;99.90
25436;DHT22;13363;52.772;-3.890;2023-08-17T10:02:00;21.80;99.90
25436;DHT22;13363;52.772;-3.890;2023-08-17T10:04:30;21.70;99.90
25436;DHT22;13363;52.772;-3.890;2023-08-17T10:07:03;21.50;99.90
25436;DHT22;13363;52.772;-3.890;2023-08-17T10:09:36;21.80;1.00
25436;DHT22;13363;52.772;-3.890;2023-08-17T10:12:09;22.10;1.00
25436;DHT22;13363;52.772;-3.890;2023-08-17T10:14:39;22.40;99.90
25436;DHT22;13363;52.772;-3.890;2023-08-17T10:17:14;22.60;99.90
25436;DHT22;13363;52.772;-3.890;2023-08-17T10:19:50;22.70;1.00
25436;DHT22;13363;52.772;-3.890;2023-08-17T10:22:31;22.60;1.00
25436;DHT22;13363;52.772;-3.890;2023-08-17T10:25:00;22.20;1.00
25436;DHT22;13363;52.772;-3.890;2023-08-17T10:27:27;22.30;49.70
25436;DHT22;13363;52.772;-3.890;2023-08-17T10:29:53;22.20;1.00
25436;DHT22;13363;52.772;-3.890;2023-08-17T10:32:21;22.40;1.00
25436;DHT22;13363;52.772;-3.890;2023-08-17T10:34:49;22.70;1.00
25436;DHT22;13363;52.772;-3.890;2023-08-17T10:37:18;22.80;1.00
25436;DHT22;13363;52.772;-3.890;2023-08-17T10:39:48;22.90;1.00
25436;DHT22;13363;52.772;-3.890;2023-08-17T10:42:15;23.00;1.00
25436;DHT22;13363;52.772;-3.890;2023-08-17T10:44:47;22.70;99.90
25436;DHT22;13363;52.772;-3.890;2023-08-17T10:47:24;22.60;1.00
25436;DHT22;13363;52.772;-3.890;2023-08-17T10:50:05;22.80;99.90
25436;DHT22;13363;52.772;-3.890;2023-08-17T10:52:36;22.80;99.90
25436;DHT22;13363;52.772;-3.890;2023-08-17T10:55:08;22.90;99.90
25436;DHT22;13363;52.772;-3.890;2023-08-17T10:57:36;22.90;99.90
25436;DHT22;13363;52.772;-3.890;2023-08-17T11:00:13;23.00;99.90
25436;DHT22;13363;52.772;-3.890;2023-08-17T11:02:43;23.10;99.90
25436;DHT22;13363;52.772;-3.890;2023-08-17T11:05:10;23.50;99.90
25436;DHT22;13363;52.772;-3.890;2023-08-17T11:07:41;24.00;99.90
25436;DHT22;13363;52.772;-3.890;2023-08-17T11:10:29;24.20;50.50
25436;DHT22;13363;52.772;-3.890;2023-08-17T11:12:56;24.40;99.90
25436;DHT22;13363;52.772;-3.890;2023-08-17T11:15:35;24.20;1.00
25436;DHT22;13363;52.772;-3.890;2023-08-17T11:18:06;24.10;1.00
25436;DHT22;13363;52.772;-3.890;2023-08-17T11:20:33;24.00;1.00
25436;DHT22;13363;52.772;-3.890;2023-08-17T11:22:59;23.80;1.00
25436;DHT22;13363;52.772;-3.890;2023-08-17T11:25:29;23.80;1.00
25436;DHT22;13363;52.772;-3.890;2023-08-17T11:27:55;23.70;1.00
25436;DHT22;13363;52.772;-3.890;2023-08-17T11:30:21;23.60;1.00
25436;DHT22;13363;52.772;-3.890;2023-08-17T11:32:51;23.70;1.00
25436;DHT22;13363;52.772;-3.890;2023-08-17T11:37:44;23.60;1.00
25436;DHT22;13363;52.772;-3.890;2023-08-17T11:40:13;23.70;1.00
25436;DHT22;13363;52.772;-3.890;2023-08-17T11:42:39;23.70;1.00
25436;DHT22;13363;52.772;-3.890;2023-08-17T11:45:05;23.80;1.00
25436;DHT22;13363;52.772;-3.890;2023-08-17T11:47:32;24.30;1.00
25436;DHT22;13363;52.772;-3.890;2023-08-17T11:50:05;24.20;1.00
25436;DHT22;13363;52.772;-3.890;2023-08-17T11:52:32;24.70;1.00
25436;DHT22;13363;52.772;-3.890;2023-08-17T11:54:59;25.10;1.00
25436;DHT22;13363;52.772;-3.890;2023-08-17T11:57:26;25.50;1.00
25436;DHT22;13363;52.772;-3.890;2023-08-17T12:02:23;26.00;1.00
25436;DHT22;13363;52.772;-3.890;2023-08-17T12:04:50;26.30;1.00
25436;DHT22;13363;52.772;-3.890;2023-08-17T12:07:17;26.70;1.00
25436;DHT22;13363;52.772;-3.890;2023-08-17T12:09:44;26.10;1.00
25436;DHT22;13363;52.772;-3.890;2023-08-17T12:12:10;25.80;99.90
25436;DHT22;13363;52.772;-3.890;2023-08-17T12:14:40;26.00;99.90
25436;DHT22;13363;52.772;-3.890;2023-08-17T12:17:06;26.00;1.00
25436;DHT22;13363;52.772;-3.890;2023-08-17T12:19:32;26.00;99.90
25436;DHT22;13363;52.772;-3.890;2023-08-17T12:21:58;26.30;99.90
25436;DHT22;13363;52.772;-3.890;2023-08-17T12:24:24;25.50;99.90
25436;DHT22;13363;52.772;-3.890;2023-08-17T12:26:50;25.60;99.90
25436;DHT22;13363;52.772;-3.890;2023-08-17T12:29:16;25.80;99.90
25436;DHT22;13363;52.772;-3.890;2023-08-17T12:31:42;25.70;99.90
25436;DHT22;13363;52.772;-3.890;2023-08-17T12:36:34;26.10;99.90
25436;DHT22;13363;52.772;-3.890;2023-08-17T12:39:04;26.30;99.90
25436;DHT22;13363;52.772;-3.890;2023-08-17T12:41:31;26.00;58.70
25436;DHT22;13363;52.772;-3.890;2023-08-17T12:43:57;26.00;75.40
25436;DHT22;13363;52.772;-3.890;2023-08-17T12:46:25;25.90;99.90
25436;DHT22;13363;52.772;-3.890;2023-08-17T12:48:51;26.20;99.90
25436;DHT22;13363;52.772;-3.890;2023-08-17T12:51:16;25.60;99.90
25436;DHT22;13363;52.772;-3.890;2023-08-17T12:53:42;25.40;99.90
25436;DHT22;13363;52.772;-3.890;2023-08-17T12:56:08;25.50;85.20
25436;DHT22;13363;52.772;-3.890;2023-08-17T12:58:34;25.50;99.90
25436;DHT22;13363;52.772;-3.890;2023-08-17T13:03:31;25.50;62.40
25436;DHT22;13363;52.772;-3.890;2023-08-17T13:05:58;27.30;12.80
25436;DHT22;13363;52.772;-3.890;2023-08-17T13:08:23;25.90;87.40
25436;DHT22;13363;52.772;-3.890;2023-08-17T13:10:52;26.10;1.00
25436;DHT22;13363;52.772;-3.890;2023-08-17T13:13:23;26.30;99.90
25436;DHT22;13363;52.772;-3.890;2023-08-17T13:15:50;26.10;24.10
25436;DHT22;13363;52.772;-3.890;2023-08-17T13:20:42;25.90;1.00
25436;DHT22;13363;52.772;-3.890;2023-08-17T13:23:09;25.90;1.00
25436;DHT22;13363;52.772;-3.890;2023-08-17T13:25:35;26.00;1.00
25436;DHT22;13363;52.772;-3.890;2023-08-17T13:28:01;26.20;1.00
25436;DHT22;13363;52.772;-3.890;2023-08-17T13:30:27;25.80;1.00
25436;DHT22;13363;52.772;-3.890;2023-08-17T13:32:53;25.30;1.00
25436;DHT22;13363;52.772;-3.890;2023-08-17T13:35:19;25.20;1.00
25436;DHT22;13363;52.772;-3.890;2023-08-17T13:37:44;25.30;1.00
25436;DHT22;13363;52.772;-3.890;2023-08-17T13:40:11;25.20;1.00
25436;DHT22;13363;52.772;-3.890;2023-08-17T13:42:36;25.60;1.00
25436;DHT22;13363;52.772;-3.890;2023-08-17T13:45:03;25.20;1.00
25436;DHT22;13363;52.772;-3.890;2023-08-17T13:47:29;25.20;1.00
25436;DHT22;13363;52.772;-3.890;2023-08-17T13:49:55;25.10;1.00
25436;DHT22;13363;52.772;-3.890;2023-08-17T13:52:22;25.00;1.00
25436;DHT22;13363;52.772;-3.890;2023-08-17T13:54:48;24.70;1.00
25436;DHT22;13363;52.772;-3.890;2023-08-17T13:57:14;24.60;1.00
25436;DHT22;13363;52.772;-3.890;2023-08-17T13:59:40;24.90;1.00
25436;DHT22;13363;52.772;-3.890;2023-08-17T14:02:06;25.10;1.00
25436;DHT22;13363;52.772;-3.890;2023-08-17T14:04:32;25.00;1.00
25436;DHT22;13363;52.772;-3.890;2023-08-17T14:06:57;25.00;1.00
25436;DHT22;13363;52.772;-3.890;2023-08-17T14:11:49;24.70;1.00
25436;DHT22;13363;52.772;-3.890;2023-08-17T14:14:15;24.90;1.00
25436;DHT22;13363;52.772;-3.890;2023-08-17T14:16:42;25.10;1.00
25436;DHT22;13363;52.772;-3.890;2023-08-17T14:21:34;25.30;1.00
25436;DHT22;13363;52.772;-3.890;2023-08-17T14:24:00;25.30;99.90
25436;DHT22;13363;52.772;-3.890;2023-08-17T14:28:52;25.50;1.00
25436;DHT22;13363;52.772;-3.890;2023-08-17T14:31:18;25.70;1.00
25436;DHT22;13363;52.772;-3.890;2023-08-17T14:33:44;25.40;1.00
25436;DHT22;13363;52.772;-3.890;2023-08-17T14:36:14;25.50;1.00
25436;DHT22;13363;52.772;-3.890;2023-08-17T14:38:40;25.40;99.90
25436;DHT22;13363;52.772;-3.890;2023-08-17T14:41:05;25.30;1.00
25436;DHT22;13363;52.772;-3.890;2023-08-17T14:43:32;25.00;99.90
25436;DHT22;13363;52.772;-3.890;2023-08-17T14:45:58;25.30;1.00
25436;DHT22;13363;52.772;-3.890;2023-08-17T14:48:24;25.50;1.00
25436;DHT22;13363;52.772;-3.890;2023-08-17T14:50:50;25.80;1.00
25436;DHT22;13363;52.772;-3.890;2023-08-17T14:53:16;26.00;1.00
25436;DHT22;13363;52.772;-3.890;2023-08-17T14:55:42;25.90;1.00
25436;DHT22;13363;52.772;-3.890;2023-08-17T14:58:08;25.80;1.00
25436;DHT22;13363;52.772;-3.890;2023-08-17T15:00:34;25.90;1.00
25436;DHT22;13363;52.772;-3.890;2023-08-17T15:03:00;25.90;1.00
25436;DHT22;13363;52.772;-3.890;2023-08-17T15:05:26;25.90;1.00
25436;DHT22;13363;52.772;-3.890;2023-08-17T15:10:19;26.40;1.00
25436;DHT22;13363;52.772;-3.890;2023-08-17T15:12:45;25.90;1.00
25436;DHT22;13363;52.772;-3.890;2023-08-17T15:15:11;26.00;1.00
25436;DHT22;13363;52.772;-3.890;2023-08-17T15:17:37;25.90;99.90
25436;DHT22;13363;52.772;-3.890;2023-08-17T15:20:03;25.80;99.90
25436;DHT22;13363;52.772;-3.890;2023-08-17T15:22:29;25.70;99.90
25436;DHT22;13363;52.772;-3.890;2023-08-17T15:24:55;25.60;99.90
25436;DHT22;13363;52.772;-3.890;2023-08-17T15:27:21;25.60;99.90
25436;DHT22;13363;52.772;-3.890;2023-08-17T15:29:47;25.40;99.90
25436;DHT22;13363;52.772;-3.890;2023-08-17T15:32:13;25.50;99.90
25436;DHT22;13363;52.772;-3.890;2023-08-17T15:34:39;25.50;99.90
25436;DHT22;13363;52.772;-3.890;2023-08-17T15:37:06;25.50;99.90
25436;DHT22;13363;52.772;-3.890;2023-08-17T15:39:32;25.40;99.90
25436;DHT22;13363;52.772;-3.890;2023-08-17T15:41:58;25.20;99.90
25436;DHT22;13363;52.772;-3.890;2023-08-17T15:44:24;25.20;99.90
25436;DHT22;13363;52.772;-3.890;2023-08-17T15:46:50;25.10;99.90
25436;DHT22;13363;52.772;-3.890;2023-08-17T15:49:17;25.10;99.90
25436;DHT22;13363;52.772;-3.890;2023-08-17T15:51:43;25.00;99.90
25436;DHT22;13363;52.772;-3.890;2023-08-17T15:54:09;25.00;99.90
25436;DHT22;13363;52.772;-3.890;2023-08-17T15:56:35;25.10;99.90
25436;DHT22;13363;52.772;-3.890;2023-08-17T15:59:01;25.10;99.90
25436;DHT22;13363;52.772;-3.890;2023-08-17T16:01:27;25.20;99.90
25436;DHT22;13363;52.772;-3.890;2023-08-17T16:03:54;25.20;99.90
25436;DHT22;13363;52.772;-3.890;2023-08-17T16:06:19;25.10;99.90
25436;DHT22;13363;52.772;-3.890;2023-08-17T16:08:45;25.00;99.90
25436;DHT22;13363;52.772;-3.890;2023-08-17T16:11:11;25.00;99.90